sensor_id;sensor_type;location;lat;lon;timestamp;temperature;humidity
5723;DHT22;2886;49.722;8.612;2023-05-16T00:01:09;13.70;99.90
5723;DHT22;2886;49.722;8.612;2023-05-16T00:03:35;13.70;99.90
5723;DHT22;2886;49.722;8.612;2023-05-16T00:06:02;13.80;99.90
5723;DHT22;2886;49.722;8.612;2023-05-16T00:08:29;13.80;99.90
5723;DHT22;2886;49.722;8.612;2023-05-16T00:10:54;13.80;99.90
5723;DHT22;2886;49.722;8.612;2023-05-16T00:13:20;13.80;99.90
5723;DHT22;2886;49.722;8.612;2023-05-16T00:15:50;13.70;99.90
5723;DHT22;2886;49.722;8.612;2023-05-16T00:18:17;13.80;99.90
5723;DHT22;2886;49.722;8.612;2023-05-16T00:20:43;13.80;99.90
5723;DHT22;2886;49.722;8.612;2023-05-16T00:23:10;13.80;99.90
5723;DHT22;2886;49.722;8.612;2023-05-16T00:25:37;13.80;99.90
5723;DHT22;2886;49.722;8.612;2023-05-16T00:28:03;13.70;99.90
5723;DHT22;2886;49.722;8.612;2023-05-16T00:30:28;13.70;99.90
5723;DHT22;2886;49.722;8.612;2023-05-16T00:32:54;13.70;99.90
5723;DHT22;2886;49.722;8.612;2023-05-16T00:35:20;13.70;99.90
5723;DHT22;2886;49.722;8.612;2023-05-16T00:37:46;13.70;99.90
5723;DHT22;2886;49.722;8.612;2023-05-16T00:40:12;13.70;99.90
5723;DHT22;2886;49.722;8.612;2023-05-16T00:42:39;13.70;99.90
5723;DHT22;2886;49.722;8.612;2023-05-16T00:45:06;13.70;99.90
5723;DHT22;2886;49.722;8.612;2023-05-16T00:47:31;13.60;99.90
5723;DHT22;2886;49.722;8.612;2023-05-16T00:49:57;13.60;99.90
5723;DHT22;2886;49.722;8.612;2023-05-16T00:52:24;13.60;99.90
5723;DHT22;2886;49.722;8.612;2023-05-16T00:54:50;13.60;99.90
5723;DHT22;2886;49.722;8.612;2023-05-16T00:57:16;13.60;99.90
5723;DHT22;2886;49.722;8.612;2023-05-16T00:59:44;13.60;99.90
5723;DHT22;2886;49.722;8.612;2023-05-16T01:02:11;13.50;99.90
5723;DHT22;2886;49.722;8.612;2023-05-16T01:04:38;13.50;99.90
5723;DHT22;2886;49.722;8.612;2023-05-16T01:07:04;13.50;99.90
5723;DHT22;2886;49.722;8.612;2023-05-16T01:09:30;13.50;99.90
5723;DHT22;2886;49.722;8.612;2023-05-16T01:12:20;13.40;99.90
5723;DHT22;2886;49.722;8.612;2023-05-16T01:15:14;13.50;99.90
5723;DHT22;2886;49.722;8.612;2023-05-16T01:17:49;13.50;99.90
5723;DHT22;2886;49.722;8.612;2023-05-16T01:20:36;13.40;99.90
5723;DHT22;2886;49.722;8.612;2023-05-16T01:28:47;13.40;99.90
5723;DHT22;2886;49.722;8.612;2023-05-16T01:31:14;13.30;99.90
5723;DHT22;2886;49.722;8.612;2023-05-16T01:33:40;13.30;99.90
5723;DHT22;2886;49.722;8.612;2023-05-16T01:36:47;13.30;99.90
5723;DHT22;2886;49.722;8.612;2023-05-16T01:39:36;13.30;99.90
5723;DHT22;2886;49.722;8.612;2023-05-16T01:42:12;13.30;99.90
5723;DHT22;2886;49.722;8.612;2023-05-16T01:45:05;13.20;99.90
5723;DHT22;2886;49.722;8.612;2023-05-16T01:47:35;13.20;99.90
5723;DHT22;2886;49.722;8.612;2023-05-16T01:50:14;13.20;99.90
5723;DHT22;2886;49.722;8.612;2023-05-16T01:55:45;13.20;99.90
5723;DHT22;2886;49.722;8.612;2023-05-16T01:58:13;13.20;99.90
5723;DHT22;2886;49.722;8.612;2023-05-16T02:00:40;13.20;99.90
5723;DHT22;2886;49.722;8.612;2023-05-16T02:03:06;13.10;99.90
5723;DHT22;2886;49.722;8.612;2023-05-16T02:05:32;13.20;99.90
5723;DHT22;2886;49.722;8.612;2023-05-16T02:07:58;13.20;99.90
5723;DHT22;2886;49.722;8.612;2023-05-16T02:10:25;13.20;99.90
5723;DHT22;2886;49.722;8.612;2023-05-16T02:12:51;13.20;99.90
5723;DHT22;2886;49.722;8.612;2023-05-16T02:15:17;13.10;99.90
5723;DHT22;2886;49.722;8.612;2023-05-16T02:17:42;13.20;99.90
5723;DHT22;2886;49.722;8.612;2023-05-16T02:20:08;13.10;99.90
5723;DHT22;2886;49.722;8.612;2023-05-16T02:22:35;13.10;99.90
5723;DHT22;2886;49.722;8.612;2023-05-16T02:25:02;13.10;99.90
5723;DHT22;2886;49.722;8.612;2023-05-16T02:27:28;13.10;99.90
5723;DHT22;2886;49.722;8.612;2023-05-16T02:29:54;13.10;99.90
5723;DHT22;2886;49.722;8.612;2023-05-16T02:32:20;13.10;99.90
5723;DHT22;2886;49.722;8.612;2023-05-16T02:34:45;13.10;99.90
5723;DHT22;2886;49.722;8.612;2023-05-16T02:37:11;13.10;99.90
5723;DHT22;2886;49.722;8.612;2023-05-16T02:39:37;13.10;99.90
5723;DHT22;2886;49.722;8.612;2023-05-16T02:42:03;13.10;99.90
5723;DHT22;2886;49.722;8.612;2023-05-16T02:44:29;13.10;99.90
5723;DHT22;2886;49.722;8.612;2023-05-16T02:46:55;13.20;99.90
5723;DHT22;2886;49.722;8.612;2023-05-16T02:49:22;13.20;99.90
5723;DHT22;2886;49.722;8.612;2023-05-16T02:51:48;13.20;99.90
5723;DHT22;2886;49.722;8.612;2023-05-16T02:54:14;13.20;99.90
5723;DHT22;2886;49.722;8.612;2023-05-16T02:56:39;13.20;99.90
5723;DHT22;2886;49.722;8.612;2023-05-16T02:59:05;13.20;99.90
5723;DHT22;2886;49.722;8.612;2023-05-16T03:01:31;13.10;99.90
5723;DHT22;2886;49.722;8.612;2023-05-16T03:03:57;13.10;99.90
5723;DHT22;2886;49.722;8.612;2023-05-16T03:06:23;13.20;99.90
5723;DHT22;2886;49.722;8.612;2023-05-16T03:08:51;13.10;99.90
5723;DHT22;2886;49.722;8.612;2023-05-16T03:11:18;13.10;99.90
5723;DHT22;2886;49.722;8.612;2023-05-16T03:13:51;13.00;99.90
5723;DHT22;2886;49.722;8.612;2023-05-16T03:16:16;13.00;99.90
5723;DHT22;2886;49.722;8.612;2023-05-16T03:18:43;13.00;99.90
5723;DHT22;2886;49.722;8.612;2023-05-16T03:21:08;12.90;99.90
5723;DHT22;2886;49.722;8.612;2023-05-16T03:23:35;12.90;99.90
5723;DHT22;2886;49.722;8.612;2023-05-16T03:26:01;12.90;99.90
5723;DHT22;2886;49.722;8.612;2023-05-16T03:28:26;12.90;99.90
5723;DHT22;2886;49.722;8.612;2023-05-16T03:30:52;12.80;99.90
5723;DHT22;2886;49.722;8.612;2023-05-16T03:33:18;12.80;99.90
5723;DHT22;2886;49.722;8.612;2023-05-16T03:35:44;12.80;99.90
5723;DHT22;2886;49.722;8.612;2023-05-16T03:38:11;12.70;99.90
5723;DHT22;2886;49.722;8.612;2023-05-16T03:40:36;12.70;99.90
5723;DHT22;2886;49.722;8.612;2023-05-16T03:43:04;12.60;99.90
5723;DHT22;2886;49.722;8.612;2023-05-16T03:45:30;12.60;99.90
5723;DHT22;2886;49.722;8.612;2023-05-16T03:47:56;12.60;99.90
5723;DHT22;2886;49.722;8.612;2023-05-16T03:50:22;12.50;99.90
5723;DHT22;2886;49.722;8.612;2023-05-16T03:52:47;12.50;99.90
5723;DHT22;2886;49.722;8.612;2023-05-16T03:55:13;12.50;99.90
5723;DHT22;2886;49.722;8.612;2023-05-16T03:57:40;12.50;99.90
5723;DHT22;2886;49.722;8.612;2023-05-16T04:00:09;12.50;99.90
5723;DHT22;2886;49.722;8.612;2023-05-16T04:02:37;12.50;99.90
5723;DHT22;2886;49.722;8.612;2023-05-16T04:05:06;12.40;99.90
5723;DHT22;2886;49.722;8.612;2023-05-16T04:07:32;12.40;99.90
5723;DHT22;2886;49.722;8.612;2023-05-16T04:09:57;12.40;99.90
5723;DHT22;2886;49.722;8.612;2023-05-16T04:12:23;12.40;99.90
5723;DHT22;2886;49.722;8.612;2023-05-16T04:14:49;12.30;99.90
5723;DHT22;2886;49.722;8.612;2023-05-16T04:17:14;12.30;99.90
5723;DHT22;2886;49.722;8.612;2023-05-16T04:19:40;12.20;99.90
5723;DHT22;2886;49.722;8.612;2023-05-16T04:22:06;12.30;99.90
5723;DHT22;2886;49.722;8.612;2023-05-16T04:24:32;12.30;99.90
5723;DHT22;2886;49.722;8.612;2023-05-16T04:26:57;12.40;99.90
5723;DHT22;2886;49.722;8.612;2023-05-16T04:29:23;12.40;99.90
5723;DHT22;2886;49.722;8.612;2023-05-16T04:31:49;12.40;99.90
5723;DHT22;2886;49.722;8.612;2023-05-16T04:34:14;12.40;99.90
5723;DHT22;2886;49.722;8.612;2023-05-16T04:36:40;12.40;99.90
5723;DHT22;2886;49.722;8.612;2023-05-16T04:39:07;12.30;99.90
5723;DHT22;2886;49.722;8.612;2023-05-16T04:41:33;12.30;99.90
5723;DHT22;2886;49.722;8.612;2023-05-16T04:44:01;12.40;99.90
5723;DHT22;2886;49.722;8.612;2023-05-16T04:46:30;12.50;99.90
5723;DHT22;2886;49.722;8.612;2023-05-16T04:48:56;12.50;99.90
5723;DHT22;2886;49.722;8.612;2023-05-16T04:51:22;12.60;99.90
5723;DHT22;2886;49.722;8.612;2023-05-16T04:53:47;12.60;99.90
5723;DHT22;2886;49.722;8.612;2023-05-16T04:56:13;12.60;99.90
5723;DHT22;2886;49.722;8.612;2023-05-16T04:58:38;12.60;99.90
5723;DHT22;2886;49.722;8.612;2023-05-16T05:01:04;12.60;99.90
5723;DHT22;2886;49.722;8.612;2023-05-16T05:03:29;12.60;99.90
5723;DHT22;2886;49.722;8.612;2023-05-16T05:05:55;12.60;99.90
5723;DHT22;2886;49.722;8.612;2023-05-16T05:08:22;12.70;99.90
5723;DHT22;2886;49.722;8.612;2023-05-16T05:10:47;12.70;99.90
5723;DHT22;2886;49.722;8.612;2023-05-16T05:13:13;12.80;99.90
5723;DHT22;2886;49.722;8.612;2023-05-16T05:15:39;12.70;99.90
5723;DHT22;2886;49.722;8.612;2023-05-16T05:18:04;12.70;99.90
5723;DHT22;2886;49.722;8.612;2023-05-16T05:20:30;12.70;99.90
5723;DHT22;2886;49.722;8.612;2023-05-16T05:22:56;12.70;99.90
5723;DHT22;2886;49.722;8.612;2023-05-16T05:25:21;12.80;99.90
5723;DHT22;2886;49.722;8.612;2023-05-16T05:27:47;12.90;99.90
5723;DHT22;2886;49.722;8.612;2023-05-16T05:30:13;12.80;99.90
5723;DHT22;2886;49.722;8.612;2023-05-16T05:32:39;12.80;99.90
5723;DHT22;2886;49.722;8.612;2023-05-16T05:35:05;12.80;99.90
5723;DHT22;2886;49.722;8.612;2023-05-16T05:37:31;12.90;99.90
5723;DHT22;2886;49.722;8.612;2023-05-16T05:39:56;12.90;99.90
5723;DHT22;2886;49.722;8.612;2023-05-16T05:42:22;13.00;99.90
5723;DHT22;2886;49.722;8.612;2023-05-16T05:44:47;13.10;99.90
5723;DHT22;2886;49.722;8.612;2023-05-16T05:47:13;13.10;99.90
5723;DHT22;2886;49.722;8.612;2023-05-16T05:49:39;13.10;99.90
5723;DHT22;2886;49.722;8.612;2023-05-16T05:52:05;13.10;99.90
5723;DHT22;2886;49.722;8.612;2023-05-16T05:54:31;13.10;99.90
5723;DHT22;2886;49.722;8.612;2023-05-16T05:56:57;13.00;99.90
5723;DHT22;2886;49.722;8.612;2023-05-16T05:59:23;12.90;99.90
5723;DHT22;2886;49.722;8.612;2023-05-16T06:01:49;12.90;99.90
5723;DHT22;2886;49.722;8.612;2023-05-16T06:04:18;13.00;99.90
5723;DHT22;2886;49.722;8.612;2023-05-16T06:06:43;13.10;99.90
5723;DHT22;2886;49.722;8.612;2023-05-16T06:09:09;13.10;99.90
5723;DHT22;2886;49.722;8.612;2023-05-16T06:11:34;13.00;99.90
5723;DHT22;2886;49.722;8.612;2023-05-16T06:14:00;13.10;99.90
5723;DHT22;2886;49.722;8.612;2023-05-16T06:16:26;13.10;99.90
5723;DHT22;2886;49.722;8.612;2023-05-16T06:18:51;13.10;99.90
5723;DHT22;2886;49.722;8.612;2023-05-16T06:21:17;13.00;99.90
5723;DHT22;2886;49.722;8.612;2023-05-16T06:23:43;12.90;99.90
5723;DHT22;2886;49.722;8.612;2023-05-16T06:26:08;13.00;99.90
5723;DHT22;2886;49.722;8.612;2023-05-16T06:28:34;13.00;99.90
5723;DHT22;2886;49.722;8.612;2023-05-16T06:31:00;12.90;99.90
5723;DHT22;2886;49.722;8.612;2023-05-16T06:33:26;12.90;99.90
5723;DHT22;2886;49.722;8.612;2023-05-16T06:35:51;12.80;99.90
5723;DHT22;2886;49.722;8.612;2023-05-16T06:38:17;12.90;99.90
5723;DHT22;2886;49.722;8.612;2023-05-16T06:40:44;12.90;99.90
5723;DHT22;2886;49.722;8.612;2023-05-16T06:43:10;12.90;99.90
5723;DHT22;2886;49.722;8.612;2023-05-16T06:45:36;12.80;99.90
5723;DHT22;2886;49.722;8.612;2023-05-16T06:48:02;12.90;99.90
5723;DHT22;2886;49.722;8.612;2023-05-16T06:50:27;12.90;99.90
5723;DHT22;2886;49.722;8.612;2023-05-16T06:52:54;12.90;99.90
5723;DHT22;2886;49.722;8.612;2023-05-16T06:55:20;12.90;99.90
5723;DHT22;2886;49.722;8.612;2023-05-16T06:57:45;12.80;99.90
5723;DHT22;2886;49.722;8.612;2023-05-16T07:00:12;12.80;99.90
5723;DHT22;2886;49.722;8.612;2023-05-16T07:02:38;12.70;99.90
5723;DHT22;2886;49.722;8.612;2023-05-16T07:05:05;12.60;99.90
5723;DHT22;2886;49.722;8.612;2023-05-16T07:07:31;12.60;99.90
5723;DHT22;2886;49.722;8.612;2023-05-16T07:09:57;12.50;99.90
5723;DHT22;2886;49.722;8.612;2023-05-16T07:12:23;12.50;99.90
5723;DHT22;2886;49.722;8.612;2023-05-16T07:14:48;12.30;99.90
5723;DHT22;2886;49.722;8.612;2023-05-16T07:17:14;12.10;99.90
5723;DHT22;2886;49.722;8.612;2023-05-16T07:19:40;12.00;99.90
5723;DHT22;2886;49.722;8.612;2023-05-16T07:22:06;11.90;99.90
5723;DHT22;2886;49.722;8.612;2023-05-16T07:24:31;11.70;99.90
5723;DHT22;2886;49.722;8.612;2023-05-16T07:26:57;11.50;99.90
5723;DHT22;2886;49.722;8.612;2023-05-16T07:29:23;11.20;99.90
5723;DHT22;2886;49.722;8.612;2023-05-16T07:31:50;11.00;99.90
5723;DHT22;2886;49.722;8.612;2023-05-16T07:34:15;10.90;99.90
5723;DHT22;2886;49.722;8.612;2023-05-16T07:36:41;10.80;99.90
5723;DHT22;2886;49.722;8.612;2023-05-16T07:39:07;10.80;99.90
5723;DHT22;2886;49.722;8.612;2023-05-16T07:41:33;10.80;99.90
5723;DHT22;2886;49.722;8.612;2023-05-16T07:43:59;10.80;99.90
5723;DHT22;2886;49.722;8.612;2023-05-16T07:46:25;10.80;99.90
5723;DHT22;2886;49.722;8.612;2023-05-16T07:48:51;10.80;99.90
5723;DHT22;2886;49.722;8.612;2023-05-16T07:51:17;10.80;99.90
5723;DHT22;2886;49.722;8.612;2023-05-16T07:53:44;10.90;99.90
5723;DHT22;2886;49.722;8.612;2023-05-16T07:56:09;10.80;99.90
5723;DHT22;2886;49.722;8.612;2023-05-16T07:58:37;10.80;99.90
5723;DHT22;2886;49.722;8.612;2023-05-16T08:01:03;11.00;99.90
5723;DHT22;2886;49.722;8.612;2023-05-16T08:03:28;11.10;99.90
5723;DHT22;2886;49.722;8.612;2023-05-16T08:05:54;11.20;99.90
5723;DHT22;2886;49.722;8.612;2023-05-16T08:08:20;11.20;99.90
5723;DHT22;2886;49.722;8.612;2023-05-16T08:10:45;11.20;99.90
5723;DHT22;2886;49.722;8.612;2023-05-16T08:13:11;11.20;99.90
5723;DHT22;2886;49.722;8.612;2023-05-16T08:15:37;11.20;99.90
5723;DHT22;2886;49.722;8.612;2023-05-16T08:18:03;11.20;99.90
5723;DHT22;2886;49.722;8.612;2023-05-16T08:20:36;11.30;99.90
5723;DHT22;2886;49.722;8.612;2023-05-16T08:23:03;11.30;99.90
5723;DHT22;2886;49.722;8.612;2023-05-16T08:25:28;11.40;99.90
5723;DHT22;2886;49.722;8.612;2023-05-16T08:27:54;11.50;99.90
5723;DHT22;2886;49.722;8.612;2023-05-16T08:30:19;11.80;99.90
5723;DHT22;2886;49.722;8.612;2023-05-16T08:35:11;12.00;99.90
5723;DHT22;2886;49.722;8.612;2023-05-16T08:37:37;12.00;99.90
5723;DHT22;2886;49.722;8.612;2023-05-16T08:40:05;11.80;99.90
5723;DHT22;2886;49.722;8.612;2023-05-16T08:42:33;11.50;99.90
5723;DHT22;2886;49.722;8.612;2023-05-16T08:44:59;11.50;99.90
5723;DHT22;2886;49.722;8.612;2023-05-16T08:47:26;11.40;99.90
5723;DHT22;2886;49.722;8.612;2023-05-16T08:49:56;11.30;99.90
5723;DHT22;2886;49.722;8.612;2023-05-16T08:52:25;11.20;99.90
5723;DHT22;2886;49.722;8.612;2023-05-16T08:54:53;11.10;99.90
5723;DHT22;2886;49.722;8.612;2023-05-16T08:57:19;11.10;99.90
5723;DHT22;2886;49.722;8.612;2023-05-16T08:59:45;11.00;99.90
5723;DHT22;2886;49.722;8.612;2023-05-16T09:02:11;10.70;99.90
5723;DHT22;2886;49.722;8.612;2023-05-16T09:04:37;10.50;99.90
5723;DHT22;2886;49.722;8.612;2023-05-16T09:07:03;10.50;99.90
5723;DHT22;2886;49.722;8.612;2023-05-16T09:09:29;10.60;99.90
5723;DHT22;2886;49.722;8.612;2023-05-16T09:11:55;10.40;99.90
5723;DHT22;2886;49.722;8.612;2023-05-16T09:14:21;10.20;99.90
5723;DHT22;2886;49.722;8.612;2023-05-16T09:17:07;10.30;99.90
5723;DHT22;2886;49.722;8.612;2023-05-16T09:19:41;10.40;99.90
5723;DHT22;2886;49.722;8.612;2023-05-16T09:22:12;10.60;99.90
5723;DHT22;2886;49.722;8.612;2023-05-16T09:24:39;10.70;99.90
5723;DHT22;2886;49.722;8.612;2023-05-16T09:27:13;10.80;99.90
5723;DHT22;2886;49.722;8.612;2023-05-16T09:29:43;10.70;99.90
5723;DHT22;2886;49.722;8.612;2023-05-16T09:32:11;10.70;99.90
5723;DHT22;2886;49.722;8.612;2023-05-16T09:34:48;10.70;99.90
5723;DHT22;2886;49.722;8.612;2023-05-16T09:37:14;10.70;99.90
5723;DHT22;2886;49.722;8.612;2023-05-16T09:39:50;10.90;99.90
5723;DHT22;2886;49.722;8.612;2023-05-16T09:42:17;10.90;99.90
5723;DHT22;2886;49.722;8.612;2023-05-16T09:44:51;11.10;99.90
5723;DHT22;2886;49.722;8.612;2023-05-16T09:47:18;11.30;99.90
5723;DHT22;2886;49.722;8.612;2023-05-16T09:49:46;11.40;99.90
5723;DHT22;2886;49.722;8.612;2023-05-16T09:52:14;11.40;99.90
5723;DHT22;2886;49.722;8.612;2023-05-16T09:54:40;11.40;99.90
5723;DHT22;2886;49.722;8.612;2023-05-16T09:57:06;11.40;99.90
5723;DHT22;2886;49.722;8.612;2023-05-16T09:59:36;11.30;99.90
5723;DHT22;2886;49.722;8.612;2023-05-16T10:02:02;11.40;99.90
5723;DHT22;2886;49.722;8.612;2023-05-16T10:04:30;11.60;99.90
5723;DHT22;2886;49.722;8.612;2023-05-16T10:06:56;11.50;99.90
5723;DHT22;2886;49.722;8.612;2023-05-16T10:09:23;11.60;99.90
5723;DHT22;2886;49.722;8.612;2023-05-16T10:11:50;11.50;99.90
5723;DHT22;2886;49.722;8.612;2023-05-16T10:14:17;11.50;99.90
5723;DHT22;2886;49.722;8.612;2023-05-16T10:16:46;11.70;99.90
5723;DHT22;2886;49.722;8.612;2023-05-16T10:19:13;11.80;99.90
5723;DHT22;2886;49.722;8.612;2023-05-16T10:21:45;11.70;99.90
5723;DHT22;2886;49.722;8.612;2023-05-16T10:24:16;11.80;99.90
5723;DHT22;2886;49.722;8.612;2023-05-16T10:26:42;11.90;99.90
5723;DHT22;2886;49.722;8.612;2023-05-16T10:29:08;11.90;99.90
5723;DHT22;2886;49.722;8.612;2023-05-16T10:31:35;12.20;99.90
5723;DHT22;2886;49.722;8.612;2023-05-16T10:34:02;12.10;99.90
5723;DHT22;2886;49.722;8.612;2023-05-16T10:36:28;12.10;99.90
5723;DHT22;2886;49.722;8.612;2023-05-16T10:38:54;12.10;99.90
5723;DHT22;2886;49.722;8.612;2023-05-16T10:41:20;12.20;99.90
5723;DHT22;2886;49.722;8.612;2023-05-16T10:43:56;12.20;99.90
5723;DHT22;2886;49.722;8.612;2023-05-16T10:46:22;12.20;99.90
5723;DHT22;2886;49.722;8.612;2023-05-16T10:48:48;12.10;99.90
5723;DHT22;2886;49.722;8.612;2023-05-16T10:51:34;11.90;99.90
5723;DHT22;2886;49.722;8.612;2023-05-16T10:54:08;11.90;99.90
5723;DHT22;2886;49.722;8.612;2023-05-16T10:56:35;11.70;99.90
5723;DHT22;2886;49.722;8.612;2023-05-16T10:59:01;11.60;99.90
5723;DHT22;2886;49.722;8.612;2023-05-16T11:01:33;11.60;99.90
5723;DHT22;2886;49.722;8.612;2023-05-16T11:04:07;11.80;99.90
5723;DHT22;2886;49.722;8.612;2023-05-16T11:09:17;11.50;99.90
5723;DHT22;2886;49.722;8.612;2023-05-16T11:12:01;11.60;99.90
5723;DHT22;2886;49.722;8.612;2023-05-16T11:24:36;11.70;99.90
5723;DHT22;2886;49.722;8.612;2023-05-16T11:27:03;11.80;99.90
5723;DHT22;2886;49.722;8.612;2023-05-16T11:29:34;11.90;99.90
5723;DHT22;2886;49.722;8.612;2023-05-16T11:32:01;11.90;99.90
5723;DHT22;2886;49.722;8.612;2023-05-16T11:34:29;11.90;99.90
5723;DHT22;2886;49.722;8.612;2023-05-16T11:36:55;11.70;99.90
5723;DHT22;2886;49.722;8.612;2023-05-16T11:39:22;11.50;99.90
5723;DHT22;2886;49.722;8.612;2023-05-16T11:41:52;11.70;99.90
5723;DHT22;2886;49.722;8.612;2023-05-16T11:44:18;11.80;99.90
5723;DHT22;2886;49.722;8.612;2023-05-16T11:46:44;12.00;99.90
5723;DHT22;2886;49.722;8.612;2023-05-16T11:49:11;11.90;99.90
5723;DHT22;2886;49.722;8.612;2023-05-16T11:51:41;11.90;99.90
5723;DHT22;2886;49.722;8.612;2023-05-16T11:54:11;11.80;99.90
5723;DHT22;2886;49.722;8.612;2023-05-16T11:56:38;12.10;99.90
5723;DHT22;2886;49.722;8.612;2023-05-16T11:59:05;12.10;99.90
5723;DHT22;2886;49.722;8.612;2023-05-16T12:01:35;12.30;99.90
5723;DHT22;2886;49.722;8.612;2023-05-16T12:04:12;12.40;99.90
5723;DHT22;2886;49.722;8.612;2023-05-16T12:06:39;12.50;99.90
5723;DHT22;2886;49.722;8.612;2023-05-16T12:09:06;12.60;99.90
5723;DHT22;2886;49.722;8.612;2023-05-16T12:11:39;12.30;99.90
5723;DHT22;2886;49.722;8.612;2023-05-16T12:14:06;12.10;99.90
5723;DHT22;2886;49.722;8.612;2023-05-16T12:16:34;12.10;99.90
5723;DHT22;2886;49.722;8.612;2023-05-16T12:19:02;12.00;99.90
5723;DHT22;2886;49.722;8.612;2023-05-16T12:21:29;12.20;99.90
5723;DHT22;2886;49.722;8.612;2023-05-16T12:23:56;12.40;99.90
5723;DHT22;2886;49.722;8.612;2023-05-16T12:26:26;12.70;99.90
5723;DHT22;2886;49.722;8.612;2023-05-16T12:28:56;13.10;99.90
5723;DHT22;2886;49.722;8.612;2023-05-16T12:31:25;13.40;99.10
5723;DHT22;2886;49.722;8.612;2023-05-16T12:33:55;13.40;98.10
5723;DHT22;2886;49.722;8.612;2023-05-16T12:36:21;13.80;92.70
5723;DHT22;2886;49.722;8.612;2023-05-16T12:38:48;14.00;90.60
5723;DHT22;2886;49.722;8.612;2023-05-16T12:41:22;14.10;90.60
5723;DHT22;2886;49.722;8.612;2023-05-16T12:43:48;14.30;77.20
5723;DHT22;2886;49.722;8.612;2023-05-16T12:46:14;14.10;71.00
5723;DHT22;2886;49.722;8.612;2023-05-16T12:48:40;14.30;71.80
5723;DHT22;2886;49.722;8.612;2023-05-16T12:51:15;14.40;67.60
5723;DHT22;2886;49.722;8.612;2023-05-16T12:53:46;14.70;63.70
5723;DHT22;2886;49.722;8.612;2023-05-16T12:56:13;14.70;65.20
5723;DHT22;2886;49.722;8.612;2023-05-16T12:58:40;15.10;63.80
5723;DHT22;2886;49.722;8.612;2023-05-16T13:01:06;14.90;55.70
5723;DHT22;2886;49.722;8.612;2023-05-16T13:03:32;15.20;56.40
5723;DHT22;2886;49.722;8.612;2023-05-16T13:05:58;15.10;55.50
5723;DHT22;2886;49.722;8.612;2023-05-16T13:08:26;15.10;56.10
5723;DHT22;2886;49.722;8.612;2023-05-16T13:10:52;14.80;55.60
5723;DHT22;2886;49.722;8.612;2023-05-16T13:13:17;14.70;57.00
5723;DHT22;2886;49.722;8.612;2023-05-16T13:15:44;14.60;57.30
5723;DHT22;2886;49.722;8.612;2023-05-16T13:18:09;14.60;57.10
5723;DHT22;2886;49.722;8.612;2023-05-16T13:20:35;14.80;58.40
5723;DHT22;2886;49.722;8.612;2023-05-16T13:23:01;14.70;58.20
5723;DHT22;2886;49.722;8.612;2023-05-16T13:25:27;14.60;57.80
5723;DHT22;2886;49.722;8.612;2023-05-16T13:27:52;14.60;58.60
5723;DHT22;2886;49.722;8.612;2023-05-16T13:30:18;14.60;56.60
5723;DHT22;2886;49.722;8.612;2023-05-16T13:35:09;14.90;58.70
5723;DHT22;2886;49.722;8.612;2023-05-16T13:37:35;15.10;57.20
5723;DHT22;2886;49.722;8.612;2023-05-16T13:40:02;15.20;56.60
5723;DHT22;2886;49.722;8.612;2023-05-16T13:42:29;15.40;55.60
5723;DHT22;2886;49.722;8.612;2023-05-16T13:44:54;15.70;55.00
5723;DHT22;2886;49.722;8.612;2023-05-16T13:47:20;15.70;55.10
5723;DHT22;2886;49.722;8.612;2023-05-16T13:49:45;15.70;54.20
5723;DHT22;2886;49.722;8.612;2023-05-16T13:52:12;16.10;53.90
5723;DHT22;2886;49.722;8.612;2023-05-16T13:54:37;15.70;51.10
5723;DHT22;2886;49.722;8.612;2023-05-16T13:57:04;15.70;52.60
5723;DHT22;2886;49.722;8.612;2023-05-16T13:59:34;16.00;52.10
5723;DHT22;2886;49.722;8.612;2023-05-16T14:02:00;16.00;49.70
5723;DHT22;2886;49.722;8.612;2023-05-16T14:04:26;16.30;48.80
5723;DHT22;2886;49.722;8.612;2023-05-16T14:06:51;16.70;49.30
5723;DHT22;2886;49.722;8.612;2023-05-16T14:09:17;16.70;48.00
5723;DHT22;2886;49.722;8.612;2023-05-16T14:11:43;16.40;45.80
5723;DHT22;2886;49.722;8.612;2023-05-16T14:14:08;16.10;45.50
5723;DHT22;2886;49.722;8.612;2023-05-16T14:16:34;16.00;46.80
5723;DHT22;2886;49.722;8.612;2023-05-16T14:18:59;16.00;46.30
5723;DHT22;2886;49.722;8.612;2023-05-16T14:21:25;15.90;46.10
5723;DHT22;2886;49.722;8.612;2023-05-16T14:23:51;15.80;46.70
5723;DHT22;2886;49.722;8.612;2023-05-16T14:26:16;16.00;46.30
5723;DHT22;2886;49.722;8.612;2023-05-16T14:28:47;16.10;45.30
5723;DHT22;2886;49.722;8.612;2023-05-16T14:31:12;16.10;44.30
5723;DHT22;2886;49.722;8.612;2023-05-16T14:33:38;16.30;42.90
5723;DHT22;2886;49.722;8.612;2023-05-16T14:36:06;16.40;41.10
5723;DHT22;2886;49.722;8.612;2023-05-16T14:38:31;16.60;40.30
5723;DHT22;2886;49.722;8.612;2023-05-16T14:40:57;17.00;40.90
5723;DHT22;2886;49.722;8.612;2023-05-16T14:43:23;16.90;40.70
5723;DHT22;2886;49.722;8.612;2023-05-16T14:45:48;17.00;40.80
5723;DHT22;2886;49.722;8.612;2023-05-16T14:48:15;16.70;40.70
5723;DHT22;2886;49.722;8.612;2023-05-16T14:50:41;16.20;41.10
5723;DHT22;2886;49.722;8.612;2023-05-16T14:53:07;16.00;42.30
5723;DHT22;2886;49.722;8.612;2023-05-16T14:55:33;16.10;42.60
5723;DHT22;2886;49.722;8.612;2023-05-16T14:57:58;16.40;41.30
5723;DHT22;2886;49.722;8.612;2023-05-16T15:00:24;16.70;41.40
5723;DHT22;2886;49.722;8.612;2023-05-16T15:02:51;16.80;39.80
5723;DHT22;2886;49.722;8.612;2023-05-16T15:05:17;16.70;39.90
5723;DHT22;2886;49.722;8.612;2023-05-16T15:07:44;16.80;39.50
5723;DHT22;2886;49.722;8.612;2023-05-16T15:10:10;16.80;40.20
5723;DHT22;2886;49.722;8.612;2023-05-16T15:12:36;17.00;40.50
5723;DHT22;2886;49.722;8.612;2023-05-16T15:15:02;17.00;38.90
5723;DHT22;2886;49.722;8.612;2023-05-16T15:17:28;16.90;39.50
5723;DHT22;2886;49.722;8.612;2023-05-16T15:19:53;16.70;40.10
5723;DHT22;2886;49.722;8.612;2023-05-16T15:22:20;16.50;39.80
5723;DHT22;2886;49.722;8.612;2023-05-16T15:24:45;16.60;40.80
5723;DHT22;2886;49.722;8.612;2023-05-16T15:27:12;16.80;39.60
5723;DHT22;2886;49.722;8.612;2023-05-16T15:29:37;17.00;39.50
5723;DHT22;2886;49.722;8.612;2023-05-16T15:32:04;17.20;39.90
5723;DHT22;2886;49.722;8.612;2023-05-16T15:34:30;17.30;39.80
5723;DHT22;2886;49.722;8.612;2023-05-16T15:36:57;17.00;40.70
5723;DHT22;2886;49.722;8.612;2023-05-16T15:39:23;16.90;40.50
5723;DHT22;2886;49.722;8.612;2023-05-16T15:41:50;16.90;40.90
5723;DHT22;2886;49.722;8.612;2023-05-16T15:44:16;16.70;39.40
5723;DHT22;2886;49.722;8.612;2023-05-16T15:46:42;16.50;40.30
5723;DHT22;2886;49.722;8.612;2023-05-16T15:49:07;16.30;39.70
5723;DHT22;2886;49.722;8.612;2023-05-16T15:51:34;16.20;39.40
5723;DHT22;2886;49.722;8.612;2023-05-16T15:54:00;16.10;39.10
5723;DHT22;2886;49.722;8.612;2023-05-16T15:56:26;16.00;40.00
5723;DHT22;2886;49.722;8.612;2023-05-16T15:58:53;16.00;39.70
5723;DHT22;2886;49.722;8.612;2023-05-16T16:01:19;16.10;39.30
5723;DHT22;2886;49.722;8.612;2023-05-16T16:03:45;15.80;39.00
5723;DHT22;2886;49.722;8.612;2023-05-16T16:06:11;15.90;40.00
5723;DHT22;2886;49.722;8.612;2023-05-16T16:08:36;15.80;39.00
5723;DHT22;2886;49.722;8.612;2023-05-16T16:11:02;16.00;38.70
5723;DHT22;2886;49.722;8.612;2023-05-16T16:13:29;16.00;39.10
5723;DHT22;2886;49.722;8.612;2023-05-16T16:15:55;16.20;39.30
5723;DHT22;2886;49.722;8.612;2023-05-16T16:18:21;16.40;40.20
5723;DHT22;2886;49.722;8.612;2023-05-16T16:20:46;16.30;38.30
5723;DHT22;2886;49.722;8.612;2023-05-16T16:23:12;16.40;39.00
5723;DHT22;2886;49.722;8.612;2023-05-16T16:25:38;16.40;40.20
5723;DHT22;2886;49.722;8.612;2023-05-16T16:28:03;16.20;40.30